Flight Track Log - Related Links

Times and Time Zones

All times are in EDT time to prevent confusion due to time zone crossing. See the C-GEMB flight status page for this flight to view local times or setup timezone preferences in your user account.

Time Position Orientation Groundspeed Altitude Reporting Facility
EDT Latitude Longitude Course Direction KTS MPH feet Rate Location/Type
Sun 02:58:01 PM 46.4167 -84.4000 254° West 120 138 4,600  Level Toronto Center
Sun 02:59:01 PM 46.4000 -84.4500 244° Southwest 130 150 6,000 1,450 Climbing Toronto Center
Sun 03:00:01 PM 46.3833 -84.4833 234° Southwest 140 161 7,500 1,650 Climbing Toronto Center
Sun 03:01:01 PM 46.3667 -84.5667 254° West 140 161 9,300 1,650 Climbing Toronto Center
Sun 03:02:01 PM 46.3500 -84.6000 234° Southwest 150 173 10,800 1,550 Climbing Toronto Center
Sun 03:03:00 PM 46.3662 -85.0858 254° West  Level FlightAware Approximate
Sun 03:03:01 PM 46.3333 -84.6833 254° West 150 173 12,400  Level Toronto Center
Sun 03:04:02 PM 46.3167 -84.7333 244° Southwest 160 184 14,000 1,650 Climbing Toronto Center
Sun 03:05:01 PM 46.3000 -84.8000 250° West 160 184 15,700 1,563 Climbing Toronto Center
Sun 03:06:01 PM 46.2833 -84.8500 244° Southwest 170 196 17,100 1,450 Climbing Toronto Center
Sun 03:07:01 PM 46.2667 -84.9167 250° West 170 196 18,600 1,600 Climbing Toronto Center
Sun 03:08:01 PM 46.2333 -84.9833 234° Southwest 180 207 20,300 1,488 Climbing Toronto Center
Sun 03:09:02 PM 46.2000 -85.0500 234° Southwest 180 207 21,600 1,350 Climbing Toronto Center
Sun 03:10:01 PM 46.1833 -85.1167 250° West 190 219 23,000 1,245 Climbing Toronto Center
Sun 03:10:48 PM 46.1817 -85.1619 267° West 197 227 23,800 1,046 Climbing Minneapolis Center
Sun 03:11:50 PM 46.1378 -85.2197 222° Southwest 211 243 24,900 581 Climbing Minneapolis Center
Sun 03:12:52 PM 46.0758 -85.2981 221° Southwest 239 275 25,000 48 Climbing Minneapolis Center
Sun 03:13:54 PM 46.0156 -85.3731 221° Southwest 274 315 25,000  Level Minneapolis Center
Sun 03:14:56 PM 45.9542 -85.4522 222° Southwest 292 336 25,000  Level Minneapolis Center
Sun 03:15:58 PM 45.8911 -85.5314 221° Southwest 300 345 25,000  Level Minneapolis Center
Sun 03:17:00 PM 45.8286 -85.6108 222° Southwest 301 346 25,000  Level Minneapolis Center
Sun 03:18:04 PM 45.7539 -85.7056 222° Southwest 300 345 25,000  Level Minneapolis Center
Sun 03:19:06 PM 45.6911 -85.7853 222° Southwest 302 348 25,000  Level Minneapolis Center
Sun 03:20:20 PM 45.6283 -85.8650 222° Southwest 303 349 25,000  Level Minneapolis Center
Sun 03:21:22 PM 45.5542 -85.9603 222° Southwest 301 346 25,000  Level Minneapolis Center
Sun 03:22:24 PM 45.4928 -86.0408 223° Southwest 303 349 25,000  Level Minneapolis Center
Sun 03:23:27 PM 45.4303 -86.1222 222° Southwest 305 351 25,000  Level Minneapolis Center
Sun 03:24:29 PM 45.3558 -86.2206 223° Southwest 306 352 25,000 -532 Level Minneapolis Center
Sun 03:25:31 PM 45.2914 -86.3036 222° Southwest 314 361 23,900 -1,113 Descending Minneapolis Center
Sun 03:26:33 PM 45.2225 -86.3919 222° Southwest 331 381 22,700 -1,258 Descending Minneapolis Center
Sun 03:27:35 PM 45.1550 -86.4733 220° Southwest 335 386 21,300 -1,355 Descending Minneapolis Center
Sun 03:28:37 PM 45.0864 -86.5572 221° Southwest 331 381 19,900 -1,306 Descending Minneapolis Center
Sun 03:29:39 PM 45.0103 -86.6489 220° Southwest 307 353 18,600 -1,210 Descending Minneapolis Center
Sun 03:30:41 PM 44.9514 -86.7197 220° Southwest 274 315 17,400 -1,016 Descending Minneapolis Center
Sun 03:31:43 PM 44.8978 -86.7836 220° Southwest 257 296 16,500 -968 Descending Minneapolis Center
Sun 03:32:45 PM 44.8400 -86.8522 220° Southwest 270 311 15,400 -1,059 Descending Minneapolis Center
Sun 03:33:59 PM 44.7806 -86.9219 220° Southwest 279 321 14,100 -1,533 Descending Minneapolis Center
Sun 03:35:02 PM 44.7014 -87.0164 220° Southwest 269 310 11,900 -1,776 Descending Minneapolis Center
Sun 03:36:04 PM 44.6467 -87.0825 221° Southwest 264 304 10,400 -1,452 Descending Minneapolis Center
Sun 03:37:06 PM 44.5906 -87.1472 219° Southwest 262 302 8,900 -1,355 Descending Minneapolis Center
Sun 03:38:08 PM 44.5358 -87.2106 220° Southwest 258 297 7,600 -1,210 Descending Minneapolis Center
Sun 03:39:10 PM 44.4856 -87.2703 220° Southwest 244 281 6,400 -1,103 Descending Minneapolis Center
Sun 03:40:24 PM 44.4314 -87.3364 221° Southwest 233 268 5,100 -613 Descending Minneapolis Center
Sun 03:41:27 PM 44.3694 -87.4056 219° Southwest 215 247 5,000 -48 Descending Minneapolis Center
Sun 03:42:29 PM 44.3236 -87.4583 219° Southwest 214 246 5,000  Level Minneapolis Center
Sun 03:43:31 PM 44.2775 -87.5114 219° Southwest 214 246 5,000  Level Minneapolis Center
Sun 03:44:33 PM 44.2314 -87.5642 219° Southwest 213 245 5,000  Level Minneapolis Center
Sun 03:45:35 PM 44.1933 -87.6075 219° Southwest 213 245 5,000  Level Minneapolis Center
Sun 03:46:37 PM 44.1394 -87.6689 219° Southwest 214 246 5,000  Level Minneapolis Center
Sun 03:47:38 PM 44.1142 -87.7528 247° West 211 243 5,000  Level Chicago Center
Sun 03:48:40 PM 44.0967 -87.8292 252° West 207 238 5,000  Level Chicago Center
Sun 03:49:42 PM 44.0789 -87.9047 252° West 206 237 5,000  Level Chicago Center
Sun 03:50:44 PM 44.0619 -87.9794 253° West 203 234 5,000  Level Chicago Center
Sun 03:51:46 PM 44.0453 -88.0525 252° West 200 230 5,000  Level Chicago Center
Sun 03:52:48 PM 44.0247 -88.1367 251° West 198 228 5,000  Level Chicago Center
Sun 03:53:51 PM 44.0081 -88.2097 252° West 199 229 5,000 -624 Level Chicago Center
Sun 03:54:53 PM 43.9903 -88.2869 252° West 204 235 3,700 -968 Descending Chicago Center
Sun 03:55:55 PM 43.9906 -88.3656 270° West 203 234 3,000 -532 Descending Chicago Center
Sun 03:56:57 PM 43.9908 -88.4325 270° West 189 217 2,600 -629 Descending Chicago Center
Sun 03:57:59 PM 43.9917 -88.4972 271° West 164 189 1,700 -672 Descending Chicago Center
Sun 03:59:02 PM 43.9914 -88.5431 270° West 151 174 1,200 -476 Descending Chicago Center

Login

Don't have an account? Register now (free) for customized features, flight alerts, and more!